createdAt,value
2018-11-13T00:00:18.401Z,9.30
2018-11-13T00:02:47.612Z,10.80
2018-11-13T00:05:16.498Z,10.27
2018-11-13T00:07:45.890Z,10.10
2018-11-13T00:10:14.834Z,8.90
2018-11-13T00:12:43.683Z,9.10
2018-11-13T00:15:13.160Z,9.63
2018-11-13T00:17:42.111Z,9.87
2018-11-13T00:20:15.207Z,10.23
2018-11-13T00:22:44.642Z,10.50
2018-11-13T00:25:14.976Z,10.03
2018-11-13T00:27:44.381Z,10.30
2018-11-13T00:30:18.143Z,11.47
2018-11-13T00:32:47.098Z,9.53
2018-11-13T00:35:16.703Z,10.10
2018-11-13T00:37:46.254Z,9.23
2018-11-13T00:40:15.622Z,10.30
2018-11-13T00:42:45.397Z,9.33
2018-11-13T00:45:14.388Z,10.37
2018-11-13T00:47:43.642Z,9.60
2018-11-13T00:50:15.515Z,10.20
2018-11-13T00:52:45.148Z,9.57
2018-11-13T00:55:14.760Z,10.30
2018-11-13T00:57:43.735Z,10.97
2018-11-13T01:00:15.390Z,11.07
2018-11-13T01:02:44.683Z,10.00
2018-11-13T01:05:17.219Z,10.27
2018-11-13T01:07:47.165Z,11.10
2018-11-13T01:10:17.559Z,10.90
2018-11-13T01:12:47.107Z,11.67
2018-11-13T01:15:17.618Z,11.70
2018-11-13T01:17:47.234Z,10.57
2018-11-13T01:20:16.952Z,9.63
2018-11-13T01:22:45.978Z,10.60
2018-11-13T01:25:15.890Z,10.80
2018-11-13T01:27:45.365Z,11.13
2018-11-13T01:30:15.690Z,10.40
2018-11-13T01:32:45.738Z,9.87
2018-11-13T01:35:15.883Z,11.17
2018-11-13T01:37:45.602Z,10.73
2018-11-13T01:40:17.782Z,10.23
2018-11-13T01:42:46.799Z,10.30
2018-11-13T01:45:16.734Z,11.80
2018-11-13T01:47:45.675Z,10.50
2018-11-13T01:50:14.899Z,11.37
2018-11-13T01:52:44.243Z,11.60
2018-11-13T01:55:14.219Z,11.90
2018-11-13T01:57:43.197Z,10.20
2018-11-13T02:00:18.639Z,10.47
2018-11-13T02:02:48.860Z,10.60
2018-11-13T02:05:19.087Z,9.83
2018-11-13T02:07:48.275Z,11.30
2018-11-13T02:10:17.827Z,10.33
2018-11-13T02:12:47.091Z,11.87
2018-11-13T02:15:16.286Z,10.60
2018-11-13T02:17:45.266Z,10.80
2018-11-13T02:20:16.930Z,10.40
2018-11-13T02:22:45.910Z,10.10
2018-11-13T02:25:16.187Z,11.07
2018-11-13T02:27:45.380Z,9.80
2018-11-13T02:30:16.202Z,10.60
2018-11-13T02:32:45.699Z,10.70
2018-11-13T02:35:15.115Z,10.63
2018-11-13T02:37:44.378Z,10.90
2018-11-13T02:40:13.454Z,10.70
2018-11-13T02:42:42.430Z,10.83
2018-11-13T02:45:14.488Z,10.60
2018-11-13T02:47:43.523Z,9.20
2018-11-13T02:50:15.808Z,10.27
2018-11-13T02:52:44.758Z,10.63
2018-11-13T02:55:13.982Z,11.10
2018-11-13T02:57:43.608Z,10.17
2018-11-13T03:00:15.694Z,10.27
2018-11-13T03:02:44.619Z,9.83
2018-11-13T03:05:15.598Z,10.40
2018-11-13T03:07:44.542Z,10.50
2018-11-13T03:10:15.585Z,10.30
2018-11-13T03:12:44.587Z,10.47
2018-11-13T03:15:14.741Z,9.63
2018-11-13T03:17:43.784Z,10.80
2018-11-13T03:20:14.458Z,9.73
2018-11-13T03:22:43.986Z,11.00
2018-11-13T03:25:15.780Z,10.80
2018-11-13T03:27:45.785Z,10.67
2018-11-13T03:30:18.215Z,11.97
2018-11-13T03:32:47.159Z,11.30
2018-11-13T03:35:16.040Z,10.40
2018-11-13T03:37:45.194Z,11.03
2018-11-13T03:40:14.602Z,12.40
2018-11-13T03:42:44.500Z,10.80
2018-11-13T03:45:13.802Z,10.93
2018-11-13T03:47:42.726Z,9.93
2018-11-13T03:50:14.926Z,11.27
2018-11-13T03:52:44.382Z,11.07
2018-11-13T03:55:13.886Z,12.67
2018-11-13T03:57:43.608Z,10.53
2018-11-13T04:00:14.590Z,12.80
2018-11-13T04:02:43.631Z,11.67
2018-11-13T04:05:13.638Z,11.87
2018-11-13T04:07:43.933Z,12.03
2018-11-13T04:10:14.775Z,12.00
2018-11-13T04:12:43.938Z,11.53
2018-11-13T04:15:15.138Z,12.30
2018-11-13T04:17:44.037Z,12.50
2018-11-13T04:20:14.876Z,66.40
2018-11-13T04:22:44.368Z,36.03
2018-11-13T04:25:13.262Z,30.43
2018-11-13T04:27:42.254Z,19.00
2018-11-13T04:30:13.294Z,12.20
2018-11-13T04:32:42.598Z,11.00
2018-11-13T04:35:13.029Z,12.00
2018-11-13T04:37:41.932Z,13.70
2018-11-13T04:40:13.984Z,15.47
2018-11-13T04:42:44.580Z,16.83
2018-11-13T04:45:14.638Z,27.17
2018-11-13T04:47:44.799Z,19.80
2018-11-13T04:50:14.935Z,11.83
2018-11-13T04:52:44.140Z,12.63
2018-11-13T04:55:13.439Z,11.77
2018-11-13T04:57:43.279Z,11.30
2018-11-13T05:00:16.126Z,12.77
2018-11-13T05:02:45.804Z,13.53
2018-11-13T05:05:15.759Z,11.60
2018-11-13T05:07:47.854Z,13.20
2018-11-13T05:10:16.892Z,12.63
2018-11-13T05:12:46.655Z,12.47
2018-11-13T05:15:15.810Z,15.33
2018-11-13T05:17:45.564Z,15.67
2018-11-13T05:20:15.394Z,14.50
2018-11-13T05:22:44.285Z,22.10
2018-11-13T05:25:15.207Z,16.27
2018-11-13T05:27:44.374Z,12.80
2018-11-13T05:30:15.038Z,14.30
2018-11-13T05:32:43.935Z,13.33
2018-11-13T05:35:14.201Z,12.23
2018-11-13T05:37:43.813Z,12.33
2018-11-13T05:40:16.271Z,12.07
2018-11-13T05:42:45.202Z,12.57
2018-11-13T05:45:15.554Z,12.87
2018-11-13T05:47:44.509Z,13.23
2018-11-13T05:50:14.605Z,12.43
2018-11-13T05:52:44.369Z,13.67
2018-11-13T05:55:14.335Z,11.53
2018-11-13T05:57:43.330Z,12.70
2018-11-13T06:00:17.879Z,12.93
2018-11-13T06:02:46.829Z,12.20
2018-11-13T06:05:15.846Z,12.33
2018-11-13T06:07:44.767Z,13.40
2018-11-13T06:10:14.117Z,13.03
2018-11-13T06:12:43.324Z,12.80
2018-11-13T06:15:12.479Z,12.37
2018-11-13T06:17:41.366Z,11.80
2018-11-13T06:20:13.025Z,14.67
2018-11-13T06:22:42.113Z,13.80
2018-11-13T06:25:13.151Z,15.57
2018-11-13T06:27:43.843Z,14.60
2018-11-13T06:30:16.504Z,15.43
2018-11-13T06:32:45.870Z,14.00
2018-11-13T06:35:14.731Z,13.83
2018-11-13T06:37:43.645Z,14.60
2018-11-13T06:40:12.706Z,15.20
2018-11-13T06:42:41.853Z,13.50
2018-11-13T06:45:15.631Z,15.00
2018-11-13T06:47:45.415Z,14.40
2018-11-13T06:50:14.811Z,17.37
2018-11-13T06:52:44.520Z,15.73
2018-11-13T06:55:32.232Z,18.07
2018-11-13T06:58:01.164Z,15.13
2018-11-13T07:00:30.011Z,18.47
2018-11-13T07:02:58.922Z,15.63
2018-11-13T07:05:27.814Z,16.70
2018-11-13T07:07:56.707Z,17.67
2018-11-13T07:10:26.692Z,18.83
2018-11-13T07:12:56.351Z,17.13
2018-11-13T07:15:28.343Z,22.07
2018-11-13T07:17:58.571Z,21.03
2018-11-13T07:20:28.821Z,19.73
2018-11-13T07:22:57.742Z,20.03
2018-11-13T07:25:26.750Z,20.70
2018-11-13T07:27:55.776Z,21.13
2018-11-13T07:30:25.378Z,19.13
2018-11-13T07:32:54.351Z,18.87
2018-11-13T07:37:31.678Z,18.00
2018-11-13T07:40:00.625Z,18.00
2018-11-13T07:42:29.502Z,18.80
2018-11-13T07:44:58.442Z,19.30
2018-11-13T07:47:27.544Z,19.30
2018-11-13T07:49:56.294Z,22.70
2018-11-13T07:52:25.288Z,20.60
2018-11-13T07:54:54.179Z,21.40
2018-11-13T07:57:23.054Z,21.07
2018-11-13T07:59:51.929Z,23.60
2018-11-13T08:02:20.871Z,19.90
2018-11-13T08:04:49.838Z,21.90
2018-11-13T08:07:18.859Z,22.10
2018-11-13T08:09:47.703Z,20.80
2018-11-13T08:12:16.850Z,20.77
2018-11-13T08:14:45.998Z,20.60
2018-11-13T08:17:14.894Z,20.73
2018-11-13T08:19:43.787Z,21.90
2018-11-13T08:22:12.763Z,21.10
2018-11-13T08:24:41.547Z,20.57
2018-11-13T08:27:10.482Z,22.40
2018-11-13T08:29:39.442Z,22.77
2018-11-13T08:32:08.579Z,22.10
2018-11-13T08:34:37.598Z,22.90
2018-11-13T08:37:06.675Z,22.40
2018-11-13T08:39:35.702Z,24.00
2018-11-13T08:42:04.802Z,21.70
2018-11-13T08:44:33.653Z,21.10
2018-11-13T08:47:02.580Z,21.17
2018-11-13T08:49:31.439Z,22.70
2018-11-13T08:52:00.450Z,20.93
2018-11-13T08:54:29.343Z,22.00
2018-11-13T08:56:58.237Z,20.20
2018-11-13T08:59:27.165Z,22.17
2018-11-13T09:01:55.995Z,23.23
2018-11-13T09:04:24.914Z,21.40
2018-11-13T09:06:53.856Z,21.83
2018-11-13T09:09:22.771Z,22.33
2018-11-13T09:11:51.754Z,26.53
2018-11-13T09:14:20.582Z,30.67
2018-11-13T09:16:49.838Z,26.90
2018-11-13T09:19:18.867Z,22.60
2018-11-13T09:21:47.702Z,20.30
2018-11-13T09:24:16.600Z,20.87
2018-11-13T09:26:45.514Z,22.50
2018-11-13T09:29:14.467Z,20.70
2018-11-13T09:31:43.522Z,22.20
2018-11-13T09:34:12.267Z,22.03
2018-11-13T09:36:41.206Z,22.60
2018-11-13T09:39:12.493Z,21.57
2018-11-13T09:41:41.460Z,21.00
2018-11-13T09:44:11.148Z,21.30
2018-11-13T09:46:40.041Z,21.60
2018-11-13T09:49:08.930Z,20.30
2018-11-13T09:51:37.879Z,20.70
2018-11-13T09:54:06.926Z,21.00
2018-11-13T09:56:35.857Z,20.40
2018-11-13T09:59:05.017Z,21.17
2018-11-13T10:01:34.339Z,22.93
2018-11-13T10:04:03.684Z,19.90
2018-11-13T10:06:31.846Z,19.00
2018-11-13T10:09:00.741Z,18.70
2018-11-13T10:11:29.616Z,19.63
2018-11-13T10:13:58.792Z,17.80
2018-11-13T10:16:27.717Z,17.80
2018-11-13T10:18:56.679Z,16.53
2018-11-13T10:21:25.610Z,17.90
2018-11-13T10:23:54.458Z,17.23
2018-11-13T10:26:23.433Z,16.13
2018-11-13T10:28:52.263Z,15.27
2018-11-13T10:31:21.174Z,18.10
2018-11-13T10:33:50.059Z,17.60
2018-11-13T10:36:18.933Z,16.57
2018-11-13T10:38:48.418Z,18.83
2018-11-13T10:41:17.328Z,17.73
2018-11-13T10:43:46.226Z,17.83
2018-11-13T10:46:15.122Z,18.70
2018-11-13T10:48:44.068Z,17.70
2018-11-13T10:51:12.903Z,18.00
2018-11-13T10:53:41.791Z,18.80
2018-11-13T10:56:10.667Z,20.20
2018-11-13T10:58:39.576Z,19.63
2018-11-13T11:01:13.921Z,20.27
2018-11-13T11:03:47.037Z,21.20
2018-11-13T11:06:15.972Z,20.77
2018-11-13T11:08:45.223Z,20.13
2018-11-13T11:11:14.157Z,22.07
2018-11-13T11:13:44.155Z,22.57
2018-11-13T11:16:13.035Z,26.30
2018-11-13T11:18:41.956Z,28.60
2018-11-13T11:21:10.845Z,27.73
2018-11-13T11:23:39.802Z,23.80
2018-11-13T11:26:09.210Z,22.37
2018-11-13T11:28:38.278Z,23.10
2018-11-13T11:31:07.317Z,23.97
2018-11-13T11:33:36.211Z,22.20
2018-11-13T11:36:05.405Z,21.87
2018-11-13T11:38:34.383Z,22.00
2018-11-13T11:41:03.168Z,23.00
2018-11-13T11:43:32.087Z,22.73
2018-11-13T11:46:00.973Z,24.23
2018-11-13T11:48:29.911Z,23.87
2018-11-13T11:50:58.842Z,22.87
2018-11-13T11:53:27.733Z,23.17
2018-11-13T11:55:56.615Z,24.87
2018-11-13T11:58:25.528Z,22.50
2018-11-13T12:00:54.379Z,21.23
2018-11-13T12:03:23.306Z,23.40
2018-11-13T12:05:52.195Z,22.17
2018-11-13T12:08:21.067Z,23.70
2018-11-13T12:10:49.961Z,22.10
2018-11-13T12:13:18.843Z,23.20
2018-11-13T12:15:47.750Z,23.27
2018-11-13T12:18:16.699Z,24.20
2018-11-13T12:20:45.684Z,24.03
2018-11-13T12:23:14.610Z,23.30
2018-11-13T12:25:43.516Z,21.60
2018-11-13T12:28:12.432Z,25.20
2018-11-13T12:30:41.898Z,21.47
2018-11-13T12:33:10.783Z,19.20
2018-11-13T12:35:39.699Z,15.93
2018-11-13T12:38:08.651Z,14.70
2018-11-13T12:40:37.614Z,12.37
2018-11-13T12:43:06.791Z,13.97
2018-11-13T12:45:35.734Z,12.70
2018-11-13T12:48:04.815Z,14.30
2018-11-13T12:50:39.186Z,16.23
2018-11-13T12:53:08.056Z,14.50
2018-11-13T12:55:37.091Z,13.87
2018-11-13T12:58:06.043Z,13.60
2018-11-13T13:00:35.011Z,12.47
2018-11-13T13:03:03.957Z,13.20
2018-11-13T13:05:32.891Z,13.63
2018-11-13T13:08:01.835Z,13.83
2018-11-13T13:10:30.848Z,11.30
2018-11-13T13:12:59.790Z,12.60
2018-11-13T13:15:28.661Z,13.07
2018-11-13T13:17:57.568Z,11.40
2018-11-13T13:20:26.806Z,13.03
2018-11-13T13:22:55.734Z,11.10
2018-11-13T13:25:25.679Z,12.20
2018-11-13T13:27:54.535Z,11.00
2018-11-13T13:30:24.626Z,10.20
2018-11-13T13:32:53.544Z,10.57
2018-11-13T13:35:58.857Z,10.83
2018-11-13T13:38:27.878Z,10.03
2018-11-13T13:40:57.962Z,8.97
2018-11-13T13:43:27.771Z,9.80
2018-11-13T13:45:56.677Z,9.37
2018-11-13T13:48:25.770Z,9.10
2018-11-13T13:50:54.899Z,10.17
2018-11-13T13:53:24.782Z,9.63
2018-11-13T13:55:53.855Z,9.67
2018-11-13T13:58:23.669Z,10.33
2018-11-13T14:00:53.426Z,10.00
2018-11-13T14:03:22.195Z,11.07
2018-11-13T14:05:51.209Z,9.93
2018-11-13T14:08:20.359Z,12.13
2018-11-13T14:10:49.362Z,10.40
2018-11-13T14:13:18.258Z,10.60
2018-11-13T14:15:47.107Z,9.47
2018-11-13T14:18:16.065Z,10.80
2018-11-13T14:20:44.969Z,9.90
2018-11-13T14:23:13.851Z,10.87
2018-11-13T14:25:42.724Z,11.00
2018-11-13T14:28:11.683Z,11.90
2018-11-13T14:30:40.643Z,10.53
2018-11-13T14:33:10.815Z,10.60
2018-11-13T14:35:39.814Z,10.47
2018-11-13T14:38:08.682Z,10.57
2018-11-13T14:40:40.031Z,11.20
2018-11-13T14:43:09.237Z,10.10
2018-11-13T14:45:38.171Z,11.17
2018-11-13T14:48:07.878Z,10.67
2018-11-13T14:50:37.029Z,11.63
2018-11-13T14:53:06.648Z,12.50
2018-11-13T14:55:36.970Z,11.07
2018-11-13T14:58:07.386Z,12.83
2018-11-13T15:00:38.093Z,13.27
2018-11-13T15:03:08.642Z,13.20
2018-11-13T15:05:37.602Z,12.87
2018-11-13T15:08:12.672Z,13.23
2018-11-13T15:10:51.810Z,14.00
2018-11-13T15:13:21.802Z,14.80
2018-11-13T15:15:50.728Z,13.17
2018-11-13T15:18:19.816Z,13.50
2018-11-13T15:20:49.498Z,13.40
2018-11-13T15:23:18.451Z,13.10
2018-11-13T15:25:47.687Z,13.60
2018-11-13T15:28:16.598Z,14.33
2018-11-13T15:30:49.332Z,11.00
2018-11-13T15:33:22.163Z,14.43
2018-11-13T15:35:51.063Z,12.17
2018-11-13T15:38:19.999Z,11.47
2018-11-13T15:40:48.851Z,18.60
2018-11-13T15:43:17.718Z,0.90
2018-11-13T15:45:46.624Z,1.20
2018-11-13T15:48:15.990Z,0.90
2018-11-13T15:54:30.092Z,1.00
2018-11-13T15:56:58.946Z,0.80
2018-11-13T15:59:27.916Z,0.83
